sensor_id;sensor_type;location;lat;lon;timestamp;pressure;altitude;pressure_sealevel;temperature;humidity
77877;BME280;67251;50.844;7.978;2023-04-24T00:02:00;97457.03;;;6.92;83.68
77877;BME280;67251;50.844;7.978;2023-04-24T00:04:26;97455.75;;;6.95;83.97
77877;BME280;67251;50.844;7.978;2023-04-24T00:06:51;97452.28;;;6.94;84.02
77877;BME280;67251;50.844;7.978;2023-04-24T00:09:22;97448.59;;;6.95;84.51
77877;BME280;67251;50.844;7.978;2023-04-24T00:11:48;97442.47;;;6.95;84.77
77877;BME280;67251;50.844;7.978;2023-04-24T00:14:13;97451.25;;;6.95;84.94
77877;BME280;67251;50.844;7.978;2023-04-24T00:16:39;97453.09;;;6.95;84.91
77877;BME280;67251;50.844;7.978;2023-04-24T00:19:04;97443.28;;;6.95;86.51
77877;BME280;67251;50.844;7.978;2023-04-24T00:21:31;97442.88;;;6.98;86.73
77877;BME280;67251;50.844;7.978;2023-04-24T00:23:57;97445.91;;;7.02;86.84
77877;BME280;67251;50.844;7.978;2023-04-24T00:26:23;97436.28;;;7.07;86.73
77877;BME280;67251;50.844;7.978;2023-04-24T00:28:48;97439.88;;;7.20;86.01
77877;BME280;67251;50.844;7.978;2023-04-24T00:31:14;97434.91;;;7.30;85.50
77877;BME280;67251;50.844;7.978;2023-04-24T00:33:39;97439.59;;;7.34;85.03
77877;BME280;67251;50.844;7.978;2023-04-24T00:36:05;97433.00;;;7.37;85.42
77877;BME280;67251;50.844;7.978;2023-04-24T00:38:30;97442.03;;;7.36;85.71
77877;BME280;67251;50.844;7.978;2023-04-24T00:40:56;97440.75;;;7.38;85.56
77877;BME280;67251;50.844;7.978;2023-04-24T00:43:21;97440.56;;;7.40;85.48
77877;BME280;67251;50.844;7.978;2023-04-24T00:45:47;97436.66;;;7.42;85.88
77877;BME280;67251;50.844;7.978;2023-04-24T00:48:12;97428.25;;;7.46;86.52
77877;BME280;67251;50.844;7.978;2023-04-24T00:50:38;97426.56;;;7.51;86.23
77877;BME280;67251;50.844;7.978;2023-04-24T00:53:04;97420.75;;;7.61;86.64
77877;BME280;67251;50.844;7.978;2023-04-24T00:55:30;97418.47;;;7.64;86.33
77877;BME280;67251;50.844;7.978;2023-04-24T00:57:56;97412.06;;;7.72;85.99
77877;BME280;67251;50.844;7.978;2023-04-24T01:00:22;97411.63;;;7.75;86.41
77877;BME280;67251;50.844;7.978;2023-04-24T01:02:48;97407.56;;;7.73;86.30
77877;BME280;67251;50.844;7.978;2023-04-24T01:05:15;97406.38;;;7.68;86.76
77877;BME280;67251;50.844;7.978;2023-04-24T01:07:44;97415.81;;;7.64;87.26
77877;BME280;67251;50.844;7.978;2023-04-24T01:10:11;97423.41;;;7.61;87.33
77877;BME280;67251;50.844;7.978;2023-04-24T01:12:37;97419.34;;;7.58;87.94
77877;BME280;67251;50.844;7.978;2023-04-24T01:15:02;97426.94;;;7.55;89.07
77877;BME280;67251;50.844;7.978;2023-04-24T01:17:29;97419.78;;;7.55;89.18
77877;BME280;67251;50.844;7.978;2023-04-24T01:19:55;97422.22;;;7.57;90.23
77877;BME280;67251;50.844;7.978;2023-04-24T01:22:21;97424.50;;;7.53;90.75
77877;BME280;67251;50.844;7.978;2023-04-24T01:24:47;97425.81;;;7.44;91.33
77877;BME280;67251;50.844;7.978;2023-04-24T01:27:13;97421.94;;;7.40;91.54
77877;BME280;67251;50.844;7.978;2023-04-24T01:29:38;97414.81;;;7.34;91.75
77877;BME280;67251;50.844;7.978;2023-04-24T01:32:04;97427.53;;;7.32;92.57
77877;BME280;67251;50.844;7.978;2023-04-24T01:34:30;97418.34;;;7.28;92.75
77877;BME280;67251;50.844;7.978;2023-04-24T01:36:56;97414.03;;;7.27;92.88
77877;BME280;67251;50.844;7.978;2023-04-24T01:39:21;97413.22;;;7.26;92.54
77877;BME280;67251;50.844;7.978;2023-04-24T01:41:48;97402.81;;;7.25;92.80
77877;BME280;67251;50.844;7.978;2023-04-24T01:44:15;97407.94;;;7.20;92.56
77877;BME280;67251;50.844;7.978;2023-04-24T01:46:41;97406.31;;;7.18;92.80
77877;BME280;67251;50.844;7.978;2023-04-24T01:52:00;97400.81;;;7.13;92.71
77877;BME280;67251;50.844;7.978;2023-04-24T01:54:25;97402.91;;;7.11;92.51
77877;BME280;67251;50.844;7.978;2023-04-24T01:56:51;97411.88;;;7.10;92.70
77877;BME280;67251;50.844;7.978;2023-04-24T01:59:17;97409.66;;;7.07;92.71
77877;BME280;67251;50.844;7.978;2023-04-24T02:01:43;97407.81;;;7.08;93.27
77877;BME280;67251;50.844;7.978;2023-04-24T02:04:08;97419.91;;;7.04;93.22
77877;BME280;67251;50.844;7.978;2023-04-24T02:06:34;97424.81;;;7.07;93.16
77877;BME280;67251;50.844;7.978;2023-04-24T02:09:00;97421.94;;;7.08;92.92
77877;BME280;67251;50.844;7.978;2023-04-24T02:11:26;97423.97;;;7.13;92.88
77877;BME280;67251;50.844;7.978;2023-04-24T02:13:52;97429.06;;;7.14;92.63
77877;BME280;67251;50.844;7.978;2023-04-24T02:16:18;97429.22;;;7.20;92.63
77877;BME280;67251;50.844;7.978;2023-04-24T02:18:43;97426.16;;;7.23;92.05
77877;BME280;67251;50.844;7.978;2023-04-24T02:21:10;97424.09;;;7.25;90.84
77877;BME280;67251;50.844;7.978;2023-04-24T02:23:35;97418.34;;;7.28;90.35
77877;BME280;67251;50.844;7.978;2023-04-24T02:26:01;97422.63;;;7.29;89.29
77877;BME280;67251;50.844;7.978;2023-04-24T02:28:26;97419.97;;;7.29;89.58
77877;BME280;67251;50.844;7.978;2023-04-24T02:30:52;97416.28;;;7.30;88.37
77877;BME280;67251;50.844;7.978;2023-04-24T02:33:17;97410.97;;;7.30;88.70
77877;BME280;67251;50.844;7.978;2023-04-24T02:35:42;97413.63;;;7.30;89.10
77877;BME280;67251;50.844;7.978;2023-04-24T02:38:08;97406.47;;;7.30;88.65
77877;BME280;67251;50.844;7.978;2023-04-24T02:40:33;97413.63;;;7.30;88.18
77877;BME280;67251;50.844;7.978;2023-04-24T02:42:59;97413.63;;;7.30;88.61
77877;BME280;67251;50.844;7.978;2023-04-24T02:45:24;97417.28;;;7.29;88.35
77877;BME280;67251;50.844;7.978;2023-04-24T02:47:49;97417.75;;;7.26;89.30
77877;BME280;67251;50.844;7.978;2023-04-24T02:50:15;97416.72;;;7.27;89.15
77877;BME280;67251;50.844;7.978;2023-04-24T02:52:40;97419.13;;;7.28;89.29
77877;BME280;67251;50.844;7.978;2023-04-24T02:55:06;97421.59;;;7.30;89.26
77877;BME280;67251;50.844;7.978;2023-04-24T02:57:33;97430.41;;;7.30;89.39
77877;BME280;67251;50.844;7.978;2023-04-24T02:59:58;97437.94;;;7.33;89.08
77877;BME280;67251;50.844;7.978;2023-04-24T03:02:23;97434.47;;;7.33;88.97
77877;BME280;67251;50.844;7.978;2023-04-24T03:04:49;97459.03;;;7.35;89.07
77877;BME280;67251;50.844;7.978;2023-04-24T03:07:14;97445.75;;;7.28;88.98
77877;BME280;67251;50.844;7.978;2023-04-24T03:09:40;97448.69;;;7.20;88.01
77877;BME280;67251;50.844;7.978;2023-04-24T03:12:06;97438.47;;;7.10;88.81
77877;BME280;67251;50.844;7.978;2023-04-24T03:14:31;97437.13;;;7.01;88.94
77877;BME280;67251;50.844;7.978;2023-04-24T03:16:57;97442.47;;;6.95;89.53
77877;BME280;67251;50.844;7.978;2023-04-24T03:19:22;97442.69;;;6.86;89.21
77877;BME280;67251;50.844;7.978;2023-04-24T03:21:48;97436.63;;;6.79;89.58
77877;BME280;67251;50.844;7.978;2023-04-24T03:24:13;97442.56;;;6.75;88.79
77877;BME280;67251;50.844;7.978;2023-04-24T03:26:39;97451.38;;;6.69;88.12
77877;BME280;67251;50.844;7.978;2023-04-24T03:29:04;97453.88;;;6.63;88.09
77877;BME280;67251;50.844;7.978;2023-04-24T03:31:30;97450.38;;;6.63;86.83
77877;BME280;67251;50.844;7.978;2023-04-24T03:33:55;97460.22;;;6.56;85.86
77877;BME280;67251;50.844;7.978;2023-04-24T03:36:20;97451.44;;;6.49;82.55
77877;BME280;67251;50.844;7.978;2023-04-24T03:38:46;97469.25;;;6.35;83.55
77877;BME280;67251;50.844;7.978;2023-04-24T03:41:11;97479.94;;;6.08;84.26
77877;BME280;67251;50.844;7.978;2023-04-24T03:43:37;97473.19;;;5.93;85.11
77877;BME280;67251;50.844;7.978;2023-04-24T03:46:03;97486.84;;;5.76;85.94
77877;BME280;67251;50.844;7.978;2023-04-24T03:48:29;97480.72;;;5.62;85.51
77877;BME280;67251;50.844;7.978;2023-04-24T03:50:54;97482.75;;;5.47;85.84
77877;BME280;67251;50.844;7.978;2023-04-24T03:53:20;97487.22;;;5.40;85.54
77877;BME280;67251;50.844;7.978;2023-04-24T03:55:45;97500.28;;;5.35;85.36
77877;BME280;67251;50.844;7.978;2023-04-24T03:58:11;97498.22;;;5.24;86.25
77877;BME280;67251;50.844;7.978;2023-04-24T04:00:37;97502.28;;;5.13;86.83
77877;BME280;67251;50.844;7.978;2023-04-24T04:03:03;97501.66;;;5.18;86.40
77877;BME280;67251;50.844;7.978;2023-04-24T04:05:28;97509.63;;;5.31;86.17
77877;BME280;67251;50.844;7.978;2023-04-24T04:07:54;97504.78;;;5.41;85.56
77877;BME280;67251;50.844;7.978;2023-04-24T04:10:19;97507.66;;;5.53;84.34
77877;BME280;67251;50.844;7.978;2023-04-24T04:12:45;97505.41;;;5.56;84.34
77877;BME280;67251;50.844;7.978;2023-04-24T04:15:10;97515.22;;;5.56;83.56
77877;BME280;67251;50.844;7.978;2023-04-24T04:17:36;97522.13;;;5.50;84.08
77877;BME280;67251;50.844;7.978;2023-04-24T04:20:03;97518.66;;;5.50;83.25
77877;BME280;67251;50.844;7.978;2023-04-24T04:22:32;97524.38;;;5.47;82.90
77877;BME280;67251;50.844;7.978;2023-04-24T04:24:57;97511.72;;;5.42;82.75
77877;BME280;67251;50.844;7.978;2023-04-24T04:27:23;97521.28;;;5.30;82.95
77877;BME280;67251;50.844;7.978;2023-04-24T04:29:49;97518.19;;;5.20;82.76
77877;BME280;67251;50.844;7.978;2023-04-24T04:32:15;97526.91;;;5.07;83.46
77877;BME280;67251;50.844;7.978;2023-04-24T04:34:41;97533.00;;;5.01;83.37
77877;BME280;67251;50.844;7.978;2023-04-24T04:37:06;97526.31;;;5.11;83.58
77877;BME280;67251;50.844;7.978;2023-04-24T04:39:32;97538.38;;;5.14;83.42
77877;BME280;67251;50.844;7.978;2023-04-24T04:41:57;97542.69;;;5.28;83.14
77877;BME280;67251;50.844;7.978;2023-04-24T04:44:23;97549.47;;;5.37;82.44
77877;BME280;67251;50.844;7.978;2023-04-24T04:46:49;97553.16;;;5.50;81.81
77877;BME280;67251;50.844;7.978;2023-04-24T04:49:15;97546.47;;;5.60;81.46
77877;BME280;67251;50.844;7.978;2023-04-24T04:51:42;97540.34;;;5.67;81.70
77877;BME280;67251;50.844;7.978;2023-04-24T04:54:07;97541.75;;;5.62;80.89
77877;BME280;67251;50.844;7.978;2023-04-24T04:56:33;97540.50;;;5.52;80.38
77877;BME280;67251;50.844;7.978;2023-04-24T04:58:58;97549.69;;;5.43;81.18
77877;BME280;67251;50.844;7.978;2023-04-24T05:01:24;97552.53;;;5.41;80.66
77877;BME280;67251;50.844;7.978;2023-04-24T05:03:50;97563.97;;;5.48;80.74
77877;BME280;67251;50.844;7.978;2023-04-24T05:06:16;97562.78;;;5.57;79.58
77877;BME280;67251;50.844;7.978;2023-04-24T05:08:42;97562.38;;;5.67;79.77
77877;BME280;67251;50.844;7.978;2023-04-24T05:11:07;97561.78;;;5.72;79.46
77877;BME280;67251;50.844;7.978;2023-04-24T05:13:33;97571.56;;;5.78;79.71
77877;BME280;67251;50.844;7.978;2023-04-24T05:15:58;97567.09;;;5.85;79.72
77877;BME280;67251;50.844;7.978;2023-04-24T05:18:24;97576.50;;;5.87;78.38
77877;BME280;67251;50.844;7.978;2023-04-24T05:20:49;97562.63;;;5.92;78.54
77877;BME280;67251;50.844;7.978;2023-04-24T05:23:15;97564.91;;;5.95;78.71
77877;BME280;67251;50.844;7.978;2023-04-24T05:25:40;97571.22;;;6.01;78.89
77877;BME280;67251;50.844;7.978;2023-04-24T05:28:06;97571.44;;;5.99;78.49
77877;BME280;67251;50.844;7.978;2023-04-24T05:30:32;97575.94;;;5.99;77.21
77877;BME280;67251;50.844;7.978;2023-04-24T05:32:57;97572.03;;;6.01;77.47
77877;BME280;67251;50.844;7.978;2023-04-24T05:35:23;97568.41;;;6.02;77.32
77877;BME280;67251;50.844;7.978;2023-04-24T05:37:48;97572.88;;;6.15;77.14
77877;BME280;67251;50.844;7.978;2023-04-24T05:40:13;97572.28;;;6.26;76.94
77877;BME280;67251;50.844;7.978;2023-04-24T05:42:39;97573.06;;;6.53;75.31
77877;BME280;67251;50.844;7.978;2023-04-24T05:45:05;97578.13;;;6.88;73.33
77877;BME280;67251;50.844;7.978;2023-04-24T05:47:31;97569.84;;;7.09;72.97
77877;BME280;67251;50.844;7.978;2023-04-24T05:49:56;97582.25;;;7.35;71.97
77877;BME280;67251;50.844;7.978;2023-04-24T05:52:21;97585.13;;;7.27;72.58
77877;BME280;67251;50.844;7.978;2023-04-24T05:54:47;97581.84;;;7.32;73.43
77877;BME280;67251;50.844;7.978;2023-04-24T05:57:12;97579.59;;;7.29;73.82
77877;BME280;67251;50.844;7.978;2023-04-24T05:59:38;97592.91;;;7.29;73.00
77877;BME280;67251;50.844;7.978;2023-04-24T06:02:03;97594.22;;;7.00;73.57
77877;BME280;67251;50.844;7.978;2023-04-24T06:04:29;97593.25;;;6.81;73.15
77877;BME280;67251;50.844;7.978;2023-04-24T06:06:54;97590.63;;;6.74;74.29
77877;BME280;67251;50.844;7.978;2023-04-24T06:09:24;97588.16;;;6.79;75.13
77877;BME280;67251;50.844;7.978;2023-04-24T06:11:50;97581.59;;;6.82;73.01
77877;BME280;67251;50.844;7.978;2023-04-24T06:14:18;97587.31;;;6.92;73.76
77877;BME280;67251;50.844;7.978;2023-04-24T06:16:43;97586.28;;;6.93;73.15
77877;BME280;67251;50.844;7.978;2023-04-24T06:19:09;97586.81;;;7.15;73.32
77877;BME280;67251;50.844;7.978;2023-04-24T06:21:34;97583.09;;;7.23;72.34
77877;BME280;67251;50.844;7.978;2023-04-24T06:23:59;97587.88;;;7.07;73.35
77877;BME280;67251;50.844;7.978;2023-04-24T06:26:25;97585.66;;;6.98;73.98
77877;BME280;67251;50.844;7.978;2023-04-24T06:28:51;97600.81;;;6.84;74.29
77877;BME280;67251;50.844;7.978;2023-04-24T06:31:19;97606.75;;;6.79;75.40
77877;BME280;67251;50.844;7.978;2023-04-24T06:33:44;97589.19;;;6.78;75.84
77877;BME280;67251;50.844;7.978;2023-04-24T06:36:10;97595.91;;;6.87;74.31
77877;BME280;67251;50.844;7.978;2023-04-24T06:38:35;97598.13;;;6.97;74.85
77877;BME280;67251;50.844;7.978;2023-04-24T06:41:01;97584.91;;;7.29;73.30
77877;BME280;67251;50.844;7.978;2023-04-24T06:43:26;97592.31;;;7.72;72.61
77877;BME280;67251;50.844;7.978;2023-04-24T06:45:52;97586.69;;;7.86;71.98
77877;BME280;67251;50.844;7.978;2023-04-24T06:48:17;97577.63;;;7.62;70.59
77877;BME280;67251;50.844;7.978;2023-04-24T06:50:42;97579.81;;;7.65;72.27
77877;BME280;67251;50.844;7.978;2023-04-24T06:53:08;97574.75;;;7.57;72.24
77877;BME280;67251;50.844;7.978;2023-04-24T06:55:36;97572.31;;;7.56;71.80
77877;BME280;67251;50.844;7.978;2023-04-24T06:58:01;97567.34;;;7.98;71.98
77877;BME280;67251;50.844;7.978;2023-04-24T07:00:26;97564.25;;;8.26;69.06
77877;BME280;67251;50.844;7.978;2023-04-24T07:02:52;97566.03;;;8.38;69.40
77877;BME280;67251;50.844;7.978;2023-04-24T07:05:17;97563.06;;;8.47;69.20
77877;BME280;67251;50.844;7.978;2023-04-24T07:07:46;97560.09;;;8.61;69.44
77877;BME280;67251;50.844;7.978;2023-04-24T07:10:12;97567.56;;;8.53;70.58
77877;BME280;67251;50.844;7.978;2023-04-24T07:12:38;97562.38;;;8.33;70.18
77877;BME280;67251;50.844;7.978;2023-04-24T07:15:05;97564.66;;;8.29;71.38
77877;BME280;67251;50.844;7.978;2023-04-24T07:17:30;97568.09;;;8.36;71.13
77877;BME280;67251;50.844;7.978;2023-04-24T07:19:56;97554.56;;;8.31;70.23
77877;BME280;67251;50.844;7.978;2023-04-24T07:22:21;97564.25;;;8.26;71.55
77877;BME280;67251;50.844;7.978;2023-04-24T07:24:47;97564.41;;;8.31;70.18
77877;BME280;67251;50.844;7.978;2023-04-24T07:27:12;97572.66;;;8.29;69.60
77877;BME280;67251;50.844;7.978;2023-04-24T07:29:40;97575.06;;;8.31;70.20
77877;BME280;67251;50.844;7.978;2023-04-24T07:32:05;97570.19;;;8.28;69.34
77877;BME280;67251;50.844;7.978;2023-04-24T07:34:31;97564.38;;;8.37;69.44
77877;BME280;67251;50.844;7.978;2023-04-24T07:36:57;97556.38;;;8.37;68.61
77877;BME280;67251;50.844;7.978;2023-04-24T07:39:22;97574.13;;;8.50;69.99
77877;BME280;67251;50.844;7.978;2023-04-24T07:41:48;97583.47;;;8.59;69.51
77877;BME280;67251;50.844;7.978;2023-04-24T07:44:13;97584.03;;;8.43;69.47
77877;BME280;67251;50.844;7.978;2023-04-24T07:46:40;97581.81;;;8.40;70.45
77877;BME280;67251;50.844;7.978;2023-04-24T07:49:05;97579.16;;;8.33;69.41
77877;BME280;67251;50.844;7.978;2023-04-24T07:51:30;97587.56;;;8.37;71.07
77877;BME280;67251;50.844;7.978;2023-04-24T07:53:57;97593.91;;;8.04;70.92
77877;BME280;67251;50.844;7.978;2023-04-24T07:56:23;97602.03;;;7.91;73.19
77877;BME280;67251;50.844;7.978;2023-04-24T07:58:48;97597.41;;;7.73;73.64
77877;BME280;67251;50.844;7.978;2023-04-24T08:01:13;97609.13;;;7.65;74.81
77877;BME280;67251;50.844;7.978;2023-04-24T08:03:39;97612.84;;;7.58;75.17
77877;BME280;67251;50.844;7.978;2023-04-24T08:06:04;97613.22;;;7.61;76.54
77877;BME280;67251;50.844;7.978;2023-04-24T08:08:30;97620.25;;;7.49;75.12
77877;BME280;67251;50.844;7.978;2023-04-24T08:10:55;97626.03;;;7.33;76.60
77877;BME280;67251;50.844;7.978;2023-04-24T08:13:21;97637.94;;;7.24;79.55
77877;BME280;67251;50.844;7.978;2023-04-24T08:15:46;97644.72;;;7.13;79.15
77877;BME280;67251;50.844;7.978;2023-04-24T08:18:12;97637.16;;;7.10;78.13
77877;BME280;67251;50.844;7.978;2023-04-24T08:20:39;97648.41;;;7.05;79.83
77877;BME280;67251;50.844;7.978;2023-04-24T08:23:04;97649.44;;;7.04;80.17
77877;BME280;67251;50.844;7.978;2023-04-24T08:25:30;97641.69;;;7.03;80.24
77877;BME280;67251;50.844;7.978;2023-04-24T08:27:55;97645.63;;;6.87;80.42
77877;BME280;67251;50.844;7.978;2023-04-24T08:30:20;97650.28;;;6.91;82.05
77877;BME280;67251;50.844;7.978;2023-04-24T08:32:47;97650.06;;;7.13;82.65
77877;BME280;67251;50.844;7.978;2023-04-24T08:35:12;97653.53;;;7.13;80.60
77877;BME280;67251;50.844;7.978;2023-04-24T08:37:38;97660.47;;;7.14;83.48
77877;BME280;67251;50.844;7.978;2023-04-24T08:40:09;97661.09;;;7.10;83.52
77877;BME280;67251;50.844;7.978;2023-04-24T08:42:37;97660.53;;;7.01;82.37
77877;BME280;67251;50.844;7.978;2023-04-24T08:45:03;97658.25;;;6.91;83.50
77877;BME280;67251;50.844;7.978;2023-04-24T08:47:29;97663.00;;;6.83;83.79
77877;BME280;67251;50.844;7.978;2023-04-24T08:49:55;97667.50;;;6.89;85.29
77877;BME280;67251;50.844;7.978;2023-04-24T08:52:21;97659.91;;;6.93;84.61
77877;BME280;67251;50.844;7.978;2023-04-24T08:54:47;97680.97;;;6.94;84.56
77877;BME280;67251;50.844;7.978;2023-04-24T08:57:14;97685.25;;;6.95;86.19
77877;BME280;67251;50.844;7.978;2023-04-24T08:59:40;97673.63;;;6.76;83.45
77877;BME280;67251;50.844;7.978;2023-04-24T09:02:06;97690.19;;;6.58;84.85
77877;BME280;67251;50.844;7.978;2023-04-24T09:04:35;97691.22;;;6.51;84.68
77877;BME280;67251;50.844;7.978;2023-04-24T09:07:01;97695.09;;;6.48;85.79
77877;BME280;67251;50.844;7.978;2023-04-24T09:09:30;97706.72;;;6.34;84.92
77877;BME280;67251;50.844;7.978;2023-04-24T09:11:56;97708.75;;;6.25;85.70
77877;BME280;67251;50.844;7.978;2023-04-24T09:14:22;97716.50;;;6.13;85.67
77877;BME280;67251;50.844;7.978;2023-04-24T09:16:49;97716.47;;;6.07;86.78
77877;BME280;67251;50.844;7.978;2023-04-24T09:19:14;97723.81;;;6.05;86.78
77877;BME280;67251;50.844;7.978;2023-04-24T09:21:40;97712.75;;;5.95;84.82
77877;BME280;67251;50.844;7.978;2023-04-24T09:24:18;97729.84;;;5.85;85.94
77877;BME280;67251;50.844;7.978;2023-04-24T09:26:45;97731.34;;;5.95;87.77
77877;BME280;67251;50.844;7.978;2023-04-24T09:29:17;97735.84;;;6.01;86.27
77877;BME280;67251;50.844;7.978;2023-04-24T09:31:44;97756.06;;;5.95;85.50
77877;BME280;67251;50.844;7.978;2023-04-24T09:34:10;97766.47;;;5.97;86.76
77877;BME280;67251;50.844;7.978;2023-04-24T09:36:42;97763.47;;;6.13;87.12
77877;BME280;67251;50.844;7.978;2023-04-24T09:39:10;97770.38;;;6.01;85.18
77877;BME280;67251;50.844;7.978;2023-04-24T09:41:57;97762.09;;;5.82;83.87
77877;BME280;67251;50.844;7.978;2023-04-24T09:44:24;97771.06;;;5.81;84.92
77877;BME280;67251;50.844;7.978;2023-04-24T09:46:53;97764.50;;;5.71;85.35
77877;BME280;67251;50.844;7.978;2023-04-24T09:49:27;97788.53;;;5.62;86.48
77877;BME280;67251;50.844;7.978;2023-04-24T09:52:02;97819.94;;;5.59;87.03
77877;BME280;67251;50.844;7.978;2023-04-24T09:54:28;97824.44;;;5.58;85.60
77877;BME280;67251;50.844;7.978;2023-04-24T09:56:54;97804.69;;;5.33;83.69
77877;BME280;67251;50.844;7.978;2023-04-24T09:59:20;97818.78;;;5.12;84.23
77877;BME280;67251;50.844;7.978;2023-04-24T10:01:46;97842.66;;;5.12;84.74
77877;BME280;67251;50.844;7.978;2023-04-24T10:06:45;97847.91;;;5.05;85.87
77877;BME280;67251;50.844;7.978;2023-04-24T10:09:12;97847.47;;;5.02;85.74
77877;BME280;67251;50.844;7.978;2023-04-24T10:11:41;97839.00;;;5.13;85.04
77877;BME280;67251;50.844;7.978;2023-04-24T10:14:09;97845.88;;;5.29;85.33
77877;BME280;67251;50.844;7.978;2023-04-24T10:16:36;97840.06;;;5.19;84.32
77877;BME280;67251;50.844;7.978;2023-04-24T10:19:02;97832.50;;;5.16;86.98
77877;BME280;67251;50.844;7.978;2023-04-24T10:21:28;97849.94;;;5.31;86.07
77877;BME280;67251;50.844;7.978;2023-04-24T10:23:54;97850.78;;;5.60;84.74
77877;BME280;67251;50.844;7.978;2023-04-24T10:26:21;97847.78;;;5.98;85.32
77877;BME280;67251;50.844;7.978;2023-04-24T10:28:47;97845.25;;;6.24;85.25
77877;BME280;67251;50.844;7.978;2023-04-24T10:31:14;97851.72;;;6.08;83.17
77877;BME280;67251;50.844;7.978;2023-04-24T10:33:43;97842.13;;;6.07;83.08
77877;BME280;67251;50.844;7.978;2023-04-24T10:36:10;97848.97;;;6.36;83.77
77877;BME280;67251;50.844;7.978;2023-04-24T10:38:38;97871.94;;;6.57;83.23
77877;BME280;67251;50.844;7.978;2023-04-24T10:43:34;97850.13;;;6.75;83.09
77877;BME280;67251;50.844;7.978;2023-04-24T10:46:01;97874.44;;;6.65;83.05
77877;BME280;67251;50.844;7.978;2023-04-24T10:48:28;97857.63;;;6.58;83.87
77877;BME280;67251;50.844;7.978;2023-04-24T10:50:53;97875.59;;;6.50;83.66
77877;BME280;67251;50.844;7.978;2023-04-24T10:53:21;97878.06;;;6.51;84.65
77877;BME280;67251;50.844;7.978;2023-04-24T10:55:57;97883.84;;;6.75;85.07
77877;BME280;67251;50.844;7.978;2023-04-24T10:58:23;97881.44;;;6.93;82.38
77877;BME280;67251;50.844;7.978;2023-04-24T11:00:57;97886.00;;;7.26;83.39
77877;BME280;67251;50.844;7.978;2023-04-24T11:03:27;97888.03;;;7.37;81.44
77877;BME280;67251;50.844;7.978;2023-04-24T11:13:26;97903.56;;;7.13;84.52
77877;BME280;67251;50.844;7.978;2023-04-24T11:19:25;97891.19;;;6.59;82.84
77877;BME280;67251;50.844;7.978;2023-04-24T11:22:02;97899.09;;;6.46;84.40
77877;BME280;67251;50.844;7.978;2023-04-24T11:26:58;97912.00;;;6.56;83.70
77877;BME280;67251;50.844;7.978;2023-04-24T11:32:41;97915.47;;;7.31;84.12
77877;BME280;67251;50.844;7.978;2023-04-24T11:35:07;97908.94;;;7.40;82.54
77877;BME280;67251;50.844;7.978;2023-04-24T11:37:39;97915.88;;;7.94;83.21
77877;BME280;67251;50.844;7.978;2023-04-24T11:40:06;97916.22;;;8.31;80.77
77877;BME280;67251;50.844;7.978;2023-04-24T11:42:39;97916.28;;;7.84;80.14
77877;BME280;67251;50.844;7.978;2023-04-24T11:45:12;97928.16;;;7.29;82.34
77877;BME280;67251;50.844;7.978;2023-04-24T11:47:39;97926.44;;;6.95;84.14
77877;BME280;67251;50.844;7.978;2023-04-24T11:50:07;97931.94;;;6.86;84.00
77877;BME280;67251;50.844;7.978;2023-04-24T11:52:37;97930.53;;;6.84;83.38
77877;BME280;67251;50.844;7.978;2023-04-24T11:55:03;97932.97;;;6.85;85.10
77877;BME280;67251;50.844;7.978;2023-04-24T11:57:29;97925.50;;;7.15;84.29
77877;BME280;67251;50.844;7.978;2023-04-24T12:00:00;97926.75;;;7.46;84.59
77877;BME280;67251;50.844;7.978;2023-04-24T12:02:26;97931.25;;;7.85;82.45
77877;BME280;67251;50.844;7.978;2023-04-24T12:04:55;97929.09;;;8.54;81.39
77877;BME280;67251;50.844;7.978;2023-04-24T12:07:22;97930.50;;;8.63;78.61
77877;BME280;67251;50.844;7.978;2023-04-24T12:09:54;97926.47;;;8.47;77.51
77877;BME280;67251;50.844;7.978;2023-04-24T12:12:20;97936.69;;;8.57;80.57
77877;BME280;67251;50.844;7.978;2023-04-24T12:14:56;97933.94;;;8.70;80.39
77877;BME280;67251;50.844;7.978;2023-04-24T12:17:30;97938.75;;;8.41;78.91
77877;BME280;67251;50.844;7.978;2023-04-24T12:20:07;97947.84;;;7.94;79.06
77877;BME280;67251;50.844;7.978;2023-04-24T12:23:02;97958.09;;;7.44;80.78
77877;BME280;67251;50.844;7.978;2023-04-24T12:25:30;97957.59;;;7.07;82.19
77877;BME280;67251;50.844;7.978;2023-04-24T12:28:14;97964.81;;;6.72;81.99
77877;BME280;67251;50.844;7.978;2023-04-24T12:30:49;97974.16;;;6.55;84.92
77877;BME280;67251;50.844;7.978;2023-04-24T12:33:21;97977.00;;;6.53;85.05
77877;BME280;67251;50.844;7.978;2023-04-24T12:35:48;97981.47;;;6.46;84.58
77877;BME280;67251;50.844;7.978;2023-04-24T12:38:16;97981.47;;;6.46;85.56
77877;BME280;67251;50.844;7.978;2023-04-24T12:40:43;97978.16;;;6.44;85.21
77877;BME280;67251;50.844;7.978;2023-04-24T12:43:19;97980.00;;;6.44;84.96
77877;BME280;67251;50.844;7.978;2023-04-24T12:45:45;97991.88;;;6.41;82.76
77877;BME280;67251;50.844;7.978;2023-04-24T12:48:11;97979.53;;;6.27;82.62
77877;BME280;67251;50.844;7.978;2023-04-24T12:50:38;97991.41;;;6.31;84.09
77877;BME280;67251;50.844;7.978;2023-04-24T12:53:03;97994.22;;;6.29;83.82
77877;BME280;67251;50.844;7.978;2023-04-24T12:55:28;98004.25;;;6.27;84.11
77877;BME280;67251;50.844;7.978;2023-04-24T12:57:54;97994.72;;;6.11;85.15
77877;BME280;67251;50.844;7.978;2023-04-24T13:00:20;97995.56;;;6.40;84.59
77877;BME280;67251;50.844;7.978;2023-04-24T13:02:46;98001.72;;;6.95;84.86
77877;BME280;67251;50.844;7.978;2023-04-24T13:05:11;97991.44;;;7.47;83.22
77877;BME280;67251;50.844;7.978;2023-04-24T13:07:39;98001.13;;;7.74;81.52
77877;BME280;67251;50.844;7.978;2023-04-24T13:10:05;97996.56;;;8.28;81.24
77877;BME280;67251;50.844;7.978;2023-04-24T13:12:31;97998.94;;;8.82;78.88
77877;BME280;67251;50.844;7.978;2023-04-24T13:14:57;97998.28;;;9.38;78.41
77877;BME280;67251;50.844;7.978;2023-04-24T13:17:24;97996.09;;;9.60;75.44
77877;BME280;67251;50.844;7.978;2023-04-24T13:19:50;98000.56;;;9.35;76.45
77877;BME280;67251;50.844;7.978;2023-04-24T13:22:16;97995.28;;;9.21;76.11
77877;BME280;67251;50.844;7.978;2023-04-24T13:24:44;97997.63;;;9.05;77.04
77877;BME280;67251;50.844;7.978;2023-04-24T13:27:10;98000.41;;;8.78;78.89
77877;BME280;67251;50.844;7.978;2023-04-24T13:29:36;97997.09;;;8.83;78.59
77877;BME280;67251;50.844;7.978;2023-04-24T13:32:01;97993.72;;;9.07;79.18